RJTL(METAR)
12/16 16:00
METAR RJTL 160700Z 05004KT 9999 FEW030 SCT100 12/02 Q1007 RMK 1CU030
4AC100 A2976=
戻る
トップページへ戻る
IMOC Co,.Ltd.